sensor_id;sensor_type;location;lat;lon;timestamp;P1;durP1;ratioP1;P2;durP2;ratioP2
54983;SDS011;40884;53.562;9.940;2024-03-06T00:00:21;14.20;;;10.67;;
54983;SDS011;40884;53.562;9.940;2024-03-06T00:01:21;18.17;;;11.03;;
54983;SDS011;40884;53.562;9.940;2024-03-06T00:02:21;13.47;;;10.50;;
54983;SDS011;40884;53.562;9.940;2024-03-06T00:03:21;15.37;;;11.20;;
54983;SDS011;40884;53.562;9.940;2024-03-06T00:04:21;17.97;;;11.43;;
54983;SDS011;40884;53.562;9.940;2024-03-06T00:05:21;13.97;;;11.30;;
54983;SDS011;40884;53.562;9.940;2024-03-06T00:06:21;14.50;;;10.27;;
54983;SDS011;40884;53.562;9.940;2024-03-06T00:07:22;15.80;;;10.97;;
54983;SDS011;40884;53.562;9.940;2024-03-06T00:08:22;17.77;;;11.33;;
54983;SDS011;40884;53.562;9.940;2024-03-06T00:09:22;17.27;;;11.50;;
54983;SDS011;40884;53.562;9.940;2024-03-06T00:10:22;17.03;;;10.63;;
54983;SDS011;40884;53.562;9.940;2024-03-06T00:11:22;14.63;;;11.17;;
54983;SDS011;40884;53.562;9.940;2024-03-06T00:12:22;15.57;;;11.90;;
54983;SDS011;40884;53.562;9.940;2024-03-06T00:13:22;15.53;;;10.93;;
54983;SDS011;40884;53.562;9.940;2024-03-06T00:14:23;14.23;;;11.60;;
54983;SDS011;40884;53.562;9.940;2024-03-06T00:15:23;15.20;;;11.87;;
54983;SDS011;40884;53.562;9.940;2024-03-06T00:16:23;14.50;;;11.50;;
54983;SDS011;40884;53.562;9.940;2024-03-06T00:17:23;13.87;;;10.63;;
54983;SDS011;40884;53.562;9.940;2024-03-06T00:18:23;15.17;;;11.10;;
54983;SDS011;40884;53.562;9.940;2024-03-06T00:19:23;16.30;;;11.63;;
54983;SDS011;40884;53.562;9.940;2024-03-06T00:20:23;16.80;;;12.20;;
54983;SDS011;40884;53.562;9.940;2024-03-06T00:21:24;15.63;;;10.97;;
54983;SDS011;40884;53.562;9.940;2024-03-06T00:22:24;13.43;;;11.03;;
54983;SDS011;40884;53.562;9.940;2024-03-06T00:23:24;13.20;;;10.97;;
54983;SDS011;40884;53.562;9.940;2024-03-06T00:24:24;15.43;;;10.83;;
54983;SDS011;40884;53.562;9.940;2024-03-06T00:25:25;14.60;;;10.90;;
54983;SDS011;40884;53.562;9.940;2024-03-06T00:26:25;13.03;;;10.13;;
54983;SDS011;40884;53.562;9.940;2024-03-06T00:27:25;13.53;;;10.60;;
54983;SDS011;40884;53.562;9.940;2024-03-06T00:28:25;14.40;;;10.77;;
54983;SDS011;40884;53.562;9.940;2024-03-06T00:29:25;15.73;;;11.33;;
54983;SDS011;40884;53.562;9.940;2024-03-06T00:30:25;16.73;;;10.47;;
54983;SDS011;40884;53.562;9.940;2024-03-06T00:31:26;15.40;;;10.53;;
54983;SDS011;40884;53.562;9.940;2024-03-06T00:32:26;14.23;;;10.27;;
54983;SDS011;40884;53.562;9.940;2024-03-06T00:33:26;14.40;;;10.90;;
54983;SDS011;40884;53.562;9.940;2024-03-06T00:34:26;15.57;;;10.33;;
54983;SDS011;40884;53.562;9.940;2024-03-06T00:35:26;14.33;;;10.93;;
54983;SDS011;40884;53.562;9.940;2024-03-06T00:36:26;13.93;;;10.53;;
54983;SDS011;40884;53.562;9.940;2024-03-06T00:37:26;13.57;;;10.43;;
54983;SDS011;40884;53.562;9.940;2024-03-06T00:38:26;12.77;;;10.27;;
54983;SDS011;40884;53.562;9.940;2024-03-06T00:39:27;12.43;;;10.03;;
54983;SDS011;40884;53.562;9.940;2024-03-06T00:40:27;12.27;;;9.03;;
54983;SDS011;40884;53.562;9.940;2024-03-06T00:41:27;11.33;;;9.73;;
54983;SDS011;40884;53.562;9.940;2024-03-06T00:42:27;12.83;;;9.50;;
54983;SDS011;40884;53.562;9.940;2024-03-06T00:43:27;11.77;;;9.17;;
54983;SDS011;40884;53.562;9.940;2024-03-06T00:44:27;11.80;;;9.33;;
54983;SDS011;40884;53.562;9.940;2024-03-06T00:45:27;11.80;;;8.67;;
54983;SDS011;40884;53.562;9.940;2024-03-06T00:46:27;10.93;;;8.83;;
54983;SDS011;40884;53.562;9.940;2024-03-06T00:47:28;11.57;;;9.40;;
54983;SDS011;40884;53.562;9.940;2024-03-06T00:48:28;13.47;;;9.00;;
54983;SDS011;40884;53.562;9.940;2024-03-06T00:49:28;15.33;;;9.23;;
54983;SDS011;40884;53.562;9.940;2024-03-06T00:50:28;13.17;;;9.63;;
54983;SDS011;40884;53.562;9.940;2024-03-06T00:51:28;11.47;;;8.67;;
54983;SDS011;40884;53.562;9.940;2024-03-06T00:52:28;12.73;;;9.00;;
54983;SDS011;40884;53.562;9.940;2024-03-06T00:53:28;12.07;;;9.10;;
54983;SDS011;40884;53.562;9.940;2024-03-06T00:54:29;12.03;;;8.77;;
54983;SDS011;40884;53.562;9.940;2024-03-06T00:55:29;10.20;;;8.67;;
54983;SDS011;40884;53.562;9.940;2024-03-06T00:56:29;10.20;;;8.33;;
54983;SDS011;40884;53.562;9.940;2024-03-06T00:57:29;9.87;;;8.60;;
54983;SDS011;40884;53.562;9.940;2024-03-06T00:58:29;11.07;;;8.03;;
54983;SDS011;40884;53.562;9.940;2024-03-06T00:59:29;11.10;;;8.87;;
54983;SDS011;40884;53.562;9.940;2024-03-06T01:00:29;10.87;;;8.20;;
54983;SDS011;40884;53.562;9.940;2024-03-06T01:01:29;12.00;;;9.00;;
54983;SDS011;40884;53.562;9.940;2024-03-06T01:02:30;10.37;;;8.40;;
54983;SDS011;40884;53.562;9.940;2024-03-06T01:03:30;12.17;;;8.37;;
54983;SDS011;40884;53.562;9.940;2024-03-06T01:04:30;10.00;;;8.30;;
54983;SDS011;40884;53.562;9.940;2024-03-06T01:05:30;9.93;;;7.33;;
54983;SDS011;40884;53.562;9.940;2024-03-06T01:06:30;8.53;;;7.63;;
54983;SDS011;40884;53.562;9.940;2024-03-06T01:07:30;11.13;;;8.10;;
54983;SDS011;40884;53.562;9.940;2024-03-06T01:08:30;11.17;;;8.00;;
54983;SDS011;40884;53.562;9.940;2024-03-06T01:09:31;11.17;;;8.50;;
54983;SDS011;40884;53.562;9.940;2024-03-06T01:10:31;13.00;;;7.97;;
54983;SDS011;40884;53.562;9.940;2024-03-06T01:11:31;8.87;;;7.77;;
54983;SDS011;40884;53.562;9.940;2024-03-06T01:12:31;10.87;;;8.27;;
54983;SDS011;40884;53.562;9.940;2024-03-06T01:13:31;11.63;;;8.23;;
54983;SDS011;40884;53.562;9.940;2024-03-06T01:14:31;12.20;;;8.57;;
54983;SDS011;40884;53.562;9.940;2024-03-06T01:15:31;12.43;;;8.10;;
54983;SDS011;40884;53.562;9.940;2024-03-06T01:16:31;10.23;;;7.67;;
54983;SDS011;40884;53.562;9.940;2024-03-06T01:17:31;8.80;;;7.30;;
54983;SDS011;40884;53.562;9.940;2024-03-06T01:18:32;9.73;;;7.63;;
54983;SDS011;40884;53.562;9.940;2024-03-06T01:19:32;10.73;;;7.50;;
54983;SDS011;40884;53.562;9.940;2024-03-06T01:20:32;12.23;;;7.97;;
54983;SDS011;40884;53.562;9.940;2024-03-06T01:21:32;9.30;;;7.50;;
54983;SDS011;40884;53.562;9.940;2024-03-06T01:22:35;9.50;;;7.43;;
54983;SDS011;40884;53.562;9.940;2024-03-06T01:23:35;10.40;;;8.10;;
54983;SDS011;40884;53.562;9.940;2024-03-06T01:24:35;10.50;;;8.30;;
54983;SDS011;40884;53.562;9.940;2024-03-06T01:25:35;8.20;;;7.10;;
54983;SDS011;40884;53.562;9.940;2024-03-06T01:26:36;10.60;;;7.87;;
54983;SDS011;40884;53.562;9.940;2024-03-06T01:27:36;10.17;;;7.03;;
54983;SDS011;40884;53.562;9.940;2024-03-06T01:28:36;9.30;;;7.80;;
54983;SDS011;40884;53.562;9.940;2024-03-06T01:29:36;13.40;;;8.53;;
54983;SDS011;40884;53.562;9.940;2024-03-06T01:30:36;12.53;;;8.30;;
54983;SDS011;40884;53.562;9.940;2024-03-06T01:31:36;10.80;;;7.80;;
54983;SDS011;40884;53.562;9.940;2024-03-06T01:32:36;8.77;;;7.23;;
54983;SDS011;40884;53.562;9.940;2024-03-06T01:33:36;9.27;;;7.43;;
54983;SDS011;40884;53.562;9.940;2024-03-06T01:34:37;8.90;;;7.37;;
54983;SDS011;40884;53.562;9.940;2024-03-06T01:35:37;10.17;;;7.87;;
54983;SDS011;40884;53.562;9.940;2024-03-06T01:36:37;8.77;;;7.40;;
54983;SDS011;40884;53.562;9.940;2024-03-06T01:37:37;8.87;;;7.10;;
54983;SDS011;40884;53.562;9.940;2024-03-06T01:38:38;10.63;;;7.10;;
54983;SDS011;40884;53.562;9.940;2024-03-06T01:39:38;10.93;;;8.13;;
54983;SDS011;40884;53.562;9.940;2024-03-06T01:40:42;10.27;;;7.87;;
54983;SDS011;40884;53.562;9.940;2024-03-06T01:42:00;11.20;;;7.22;;
54983;SDS011;40884;53.562;9.940;2024-03-06T01:43:00;9.18;;;7.10;;
54983;SDS011;40884;53.562;9.940;2024-03-06T01:44:01;8.70;;;7.63;;
54983;SDS011;40884;53.562;9.940;2024-03-06T01:45:01;11.97;;;8.20;;
54983;SDS011;40884;53.562;9.940;2024-03-06T01:46:02;9.20;;;7.60;;
54983;SDS011;40884;53.562;9.940;2024-03-06T01:47:02;10.83;;;7.53;;
54983;SDS011;40884;53.562;9.940;2024-03-06T01:48:02;9.13;;;7.23;;
54983;SDS011;40884;53.562;9.940;2024-03-06T01:49:02;8.93;;;6.93;;
54983;SDS011;40884;53.562;9.940;2024-03-06T01:50:03;9.53;;;7.60;;
54983;SDS011;40884;53.562;9.940;2024-03-06T01:51:04;9.45;;;7.50;;
54983;SDS011;40884;53.562;9.940;2024-03-06T01:52:04;8.57;;;7.03;;
54983;SDS011;40884;53.562;9.940;2024-03-06T01:53:04;10.93;;;7.73;;
54983;SDS011;40884;53.562;9.940;2024-03-06T01:54:04;10.97;;;8.50;;
54983;SDS011;40884;53.562;9.940;2024-03-06T01:55:05;9.57;;;7.77;;
54983;SDS011;40884;53.562;9.940;2024-03-06T01:56:06;9.80;;;7.97;;
54983;SDS011;40884;53.562;9.940;2024-03-06T01:57:07;11.00;;;7.80;;
54983;SDS011;40884;53.562;9.940;2024-03-06T01:58:08;10.73;;;7.70;;
54983;SDS011;40884;53.562;9.940;2024-03-06T01:59:08;8.27;;;7.10;;
54983;SDS011;40884;53.562;9.940;2024-03-06T02:00:08;9.63;;;8.10;;
54983;SDS011;40884;53.562;9.940;2024-03-06T02:01:09;9.33;;;8.13;;
54983;SDS011;40884;53.562;9.940;2024-03-06T02:02:09;9.73;;;7.47;;
54983;SDS011;40884;53.562;9.940;2024-03-06T02:03:10;9.70;;;7.87;;
54983;SDS011;40884;53.562;9.940;2024-03-06T02:04:11;10.70;;;8.23;;
54983;SDS011;40884;53.562;9.940;2024-03-06T02:05:11;12.37;;;7.80;;
54983;SDS011;40884;53.562;9.940;2024-03-06T02:06:12;11.33;;;7.50;;
54983;SDS011;40884;53.562;9.940;2024-03-06T02:07:13;10.57;;;7.85;;
54983;SDS011;40884;53.562;9.940;2024-03-06T02:08:14;10.10;;;7.80;;
54983;SDS011;40884;53.562;9.940;2024-03-06T02:09:14;10.73;;;7.90;;
54983;SDS011;40884;53.562;9.940;2024-03-06T02:10:14;10.40;;;8.20;;
54983;SDS011;40884;53.562;9.940;2024-03-06T02:11:14;9.93;;;8.10;;
54983;SDS011;40884;53.562;9.940;2024-03-06T02:12:14;10.23;;;7.77;;
54983;SDS011;40884;53.562;9.940;2024-03-06T02:13:14;10.23;;;7.90;;
54983;SDS011;40884;53.562;9.940;2024-03-06T02:14:14;10.20;;;8.13;;
54983;SDS011;40884;53.562;9.940;2024-03-06T02:15:15;9.80;;;7.80;;
54983;SDS011;40884;53.562;9.940;2024-03-06T02:16:15;11.33;;;8.30;;
54983;SDS011;40884;53.562;9.940;2024-03-06T02:17:15;9.37;;;7.83;;
54983;SDS011;40884;53.562;9.940;2024-03-06T02:18:15;9.83;;;7.50;;
54983;SDS011;40884;53.562;9.940;2024-03-06T02:19:15;10.73;;;7.80;;
54983;SDS011;40884;53.562;9.940;2024-03-06T02:20:15;8.60;;;7.70;;
54983;SDS011;40884;53.562;9.940;2024-03-06T02:21:15;9.77;;;8.03;;
54983;SDS011;40884;53.562;9.940;2024-03-06T02:22:16;12.60;;;8.10;;
54983;SDS011;40884;53.562;9.940;2024-03-06T02:23:16;11.67;;;7.90;;
54983;SDS011;40884;53.562;9.940;2024-03-06T02:24:16;9.57;;;7.53;;
54983;SDS011;40884;53.562;9.940;2024-03-06T02:25:16;9.47;;;7.80;;
54983;SDS011;40884;53.562;9.940;2024-03-06T02:26:17;7.73;;;6.70;;
54983;SDS011;40884;53.562;9.940;2024-03-06T02:27:17;10.13;;;7.97;;
54983;SDS011;40884;53.562;9.940;2024-03-06T02:28:17;11.77;;;7.93;;
54983;SDS011;40884;53.562;9.940;2024-03-06T02:29:17;10.00;;;7.87;;
54983;SDS011;40884;53.562;9.940;2024-03-06T02:30:20;10.03;;;7.63;;
54983;SDS011;40884;53.562;9.940;2024-03-06T02:31:20;9.13;;;7.60;;
54983;SDS011;40884;53.562;9.940;2024-03-06T02:32:21;10.30;;;8.00;;
54983;SDS011;40884;53.562;9.940;2024-03-06T02:33:21;9.37;;;7.63;;
54983;SDS011;40884;53.562;9.940;2024-03-06T02:34:21;7.80;;;7.00;;
54983;SDS011;40884;53.562;9.940;2024-03-06T02:35:21;13.30;;;8.37;;
54983;SDS011;40884;53.562;9.940;2024-03-06T02:36:22;9.00;;;7.63;;
54983;SDS011;40884;53.562;9.940;2024-03-06T02:37:22;9.30;;;7.83;;
54983;SDS011;40884;53.562;9.940;2024-03-06T02:38:22;10.13;;;7.77;;
54983;SDS011;40884;53.562;9.940;2024-03-06T02:39:22;9.47;;;7.63;;
54983;SDS011;40884;53.562;9.940;2024-03-06T02:40:22;10.87;;;8.10;;
54983;SDS011;40884;53.562;9.940;2024-03-06T02:41:22;9.20;;;8.03;;
54983;SDS011;40884;53.562;9.940;2024-03-06T02:42:22;8.73;;;7.60;;
54983;SDS011;40884;53.562;9.940;2024-03-06T02:43:22;9.13;;;7.70;;
54983;SDS011;40884;53.562;9.940;2024-03-06T02:44:23;9.60;;;7.30;;
54983;SDS011;40884;53.562;9.940;2024-03-06T02:45:23;9.93;;;7.87;;
54983;SDS011;40884;53.562;9.940;2024-03-06T02:46:23;9.10;;;7.40;;
54983;SDS011;40884;53.562;9.940;2024-03-06T02:47:23;10.13;;;7.73;;
54983;SDS011;40884;53.562;9.940;2024-03-06T02:48:23;9.50;;;7.67;;
54983;SDS011;40884;53.562;9.940;2024-03-06T02:49:23;11.20;;;7.50;;
54983;SDS011;40884;53.562;9.940;2024-03-06T02:50:23;9.83;;;7.40;;
54983;SDS011;40884;53.562;9.940;2024-03-06T02:51:23;9.73;;;8.10;;
54983;SDS011;40884;53.562;9.940;2024-03-06T02:52:24;9.73;;;7.13;;
54983;SDS011;40884;53.562;9.940;2024-03-06T02:53:24;10.13;;;8.23;;
54983;SDS011;40884;53.562;9.940;2024-03-06T02:54:24;11.80;;;8.00;;
54983;SDS011;40884;53.562;9.940;2024-03-06T02:55:24;8.67;;;7.60;;
54983;SDS011;40884;53.562;9.940;2024-03-06T02:56:24;9.33;;;7.53;;
54983;SDS011;40884;53.562;9.940;2024-03-06T02:57:27;9.87;;;7.87;;
54983;SDS011;40884;53.562;9.940;2024-03-06T02:58:28;10.45;;;7.57;;
54983;SDS011;40884;53.562;9.940;2024-03-06T02:59:28;11.43;;;8.30;;
54983;SDS011;40884;53.562;9.940;2024-03-06T03:00:28;10.00;;;7.27;;
54983;SDS011;40884;53.562;9.940;2024-03-06T03:01:28;10.80;;;7.60;;
54983;SDS011;40884;53.562;9.940;2024-03-06T03:02:29;11.03;;;8.10;;
54983;SDS011;40884;53.562;9.940;2024-03-06T03:03:29;11.17;;;7.63;;
54983;SDS011;40884;53.562;9.940;2024-03-06T03:04:29;10.43;;;8.17;;
54983;SDS011;40884;53.562;9.940;2024-03-06T03:05:29;12.73;;;7.97;;
54983;SDS011;40884;53.562;9.940;2024-03-06T03:06:29;8.40;;;7.17;;
54983;SDS011;40884;53.562;9.940;2024-03-06T03:07:29;10.30;;;7.17;;
54983;SDS011;40884;53.562;9.940;2024-03-06T03:08:29;8.70;;;7.37;;
54983;SDS011;40884;53.562;9.940;2024-03-06T03:09:29;9.43;;;7.60;;
54983;SDS011;40884;53.562;9.940;2024-03-06T03:10:29;9.90;;;7.07;;
54983;SDS011;40884;53.562;9.940;2024-03-06T03:11:30;9.40;;;7.57;;
54983;SDS011;40884;53.562;9.940;2024-03-06T03:12:30;9.67;;;7.30;;
54983;SDS011;40884;53.562;9.940;2024-03-06T03:13:30;9.40;;;7.37;;
54983;SDS011;40884;53.562;9.940;2024-03-06T03:14:30;10.40;;;7.23;;
54983;SDS011;40884;53.562;9.940;2024-03-06T03:15:30;10.37;;;7.70;;
54983;SDS011;40884;53.562;9.940;2024-03-06T03:16:30;9.10;;;7.30;;
54983;SDS011;40884;53.562;9.940;2024-03-06T03:17:31;10.10;;;7.47;;
54983;SDS011;40884;53.562;9.940;2024-03-06T03:18:31;10.73;;;7.37;;
54983;SDS011;40884;53.562;9.940;2024-03-06T03:19:31;9.33;;;7.30;;
54983;SDS011;40884;53.562;9.940;2024-03-06T03:20:31;10.30;;;7.27;;
54983;SDS011;40884;53.562;9.940;2024-03-06T03:21:31;10.73;;;7.77;;
54983;SDS011;40884;53.562;9.940;2024-03-06T03:22:32;8.97;;;6.30;;
54983;SDS011;40884;53.562;9.940;2024-03-06T03:23:32;11.07;;;7.63;;
54983;SDS011;40884;53.562;9.940;2024-03-06T03:24:32;9.70;;;7.33;;
54983;SDS011;40884;53.562;9.940;2024-03-06T03:25:32;9.27;;;6.47;;
54983;SDS011;40884;53.562;9.940;2024-03-06T03:26:32;10.63;;;7.10;;
54983;SDS011;40884;53.562;9.940;2024-03-06T03:27:32;8.90;;;7.00;;
54983;SDS011;40884;53.562;9.940;2024-03-06T03:28:32;9.30;;;7.03;;
54983;SDS011;40884;53.562;9.940;2024-03-06T03:29:32;8.13;;;6.47;;
54983;SDS011;40884;53.562;9.940;2024-03-06T03:30:33;8.20;;;6.60;;
54983;SDS011;40884;53.562;9.940;2024-03-06T03:31:33;9.83;;;6.30;;
54983;SDS011;40884;53.562;9.940;2024-03-06T03:32:33;9.20;;;6.70;;
54983;SDS011;40884;53.562;9.940;2024-03-06T03:33:33;9.87;;;6.60;;
54983;SDS011;40884;53.562;9.940;2024-03-06T03:34:36;11.00;;;7.20;;
54983;SDS011;40884;53.562;9.940;2024-03-06T03:35:36;8.48;;;6.18;;
54983;SDS011;40884;53.562;9.940;2024-03-06T03:36:43;8.27;;;6.60;;
54983;SDS011;40884;53.562;9.940;2024-03-06T03:37:43;9.35;;;6.43;;
54983;SDS011;40884;53.562;9.940;2024-03-06T03:38:43;11.47;;;6.60;;
54983;SDS011;40884;53.562;9.940;2024-03-06T03:39:43;7.77;;;6.43;;
54983;SDS011;40884;53.562;9.940;2024-03-06T03:40:43;9.47;;;6.90;;
54983;SDS011;40884;53.562;9.940;2024-03-06T03:41:47;9.40;;;6.77;;
54983;SDS011;40884;53.562;9.940;2024-03-06T03:42:48;7.47;;;5.95;;
54983;SDS011;40884;53.562;9.940;2024-03-06T03:43:48;8.57;;;6.20;;
54983;SDS011;40884;53.562;9.940;2024-03-06T03:44:48;8.27;;;6.43;;
54983;SDS011;40884;53.562;9.940;2024-03-06T03:45:48;9.93;;;6.60;;
54983;SDS011;40884;53.562;9.940;2024-03-06T03:46:48;7.37;;;6.03;;
54983;SDS011;40884;53.562;9.940;2024-03-06T03:47:48;11.43;;;6.57;;
54983;SDS011;40884;53.562;9.940;2024-03-06T03:48:48;8.10;;;6.50;;
54983;SDS011;40884;53.562;9.940;2024-03-06T03:49:48;8.90;;;6.50;;
54983;SDS011;40884;53.562;9.940;2024-03-06T03:50:49;9.03;;;6.87;;
54983;SDS011;40884;53.562;9.940;2024-03-06T03:51:49;7.93;;;6.40;;
54983;SDS011;40884;53.562;9.940;2024-03-06T03:52:49;10.23;;;6.57;;
54983;SDS011;40884;53.562;9.940;2024-03-06T03:53:49;7.97;;;6.70;;
54983;SDS011;40884;53.562;9.940;2024-03-06T03:54:49;9.17;;;6.60;;
54983;SDS011;40884;53.562;9.940;2024-03-06T03:55:49;8.43;;;6.23;;
54983;SDS011;40884;53.562;9.940;2024-03-06T03:56:49;8.03;;;6.90;;
54983;SDS011;40884;53.562;9.940;2024-03-06T03:57:49;10.07;;;6.70;;
54983;SDS011;40884;53.562;9.940;2024-03-06T03:58:49;8.80;;;6.67;;
54983;SDS011;40884;53.562;9.940;2024-03-06T03:59:50;7.00;;;6.17;;
54983;SDS011;40884;53.562;9.940;2024-03-06T04:00:50;9.47;;;6.70;;
54983;SDS011;40884;53.562;9.940;2024-03-06T04:01:50;11.47;;;7.00;;
54983;SDS011;40884;53.562;9.940;2024-03-06T04:02:50;11.17;;;6.80;;
54983;SDS011;40884;53.562;9.940;2024-03-06T04:03:50;7.00;;;6.30;;
54983;SDS011;40884;53.562;9.940;2024-03-06T04:04:50;9.43;;;7.03;;
54983;SDS011;40884;53.562;9.940;2024-03-06T04:05:50;7.23;;;6.40;;
54983;SDS011;40884;53.562;9.940;2024-03-06T04:06:51;8.57;;;6.27;;
54983;SDS011;40884;53.562;9.940;2024-03-06T04:07:51;10.03;;;6.60;;
54983;SDS011;40884;53.562;9.940;2024-03-06T04:08:51;9.77;;;6.40;;
54983;SDS011;40884;53.562;9.940;2024-03-06T04:09:51;12.37;;;7.07;;
54983;SDS011;40884;53.562;9.940;2024-03-06T04:10:51;9.67;;;6.70;;
54983;SDS011;40884;53.562;9.940;2024-03-06T04:11:51;9.27;;;7.00;;
54983;SDS011;40884;53.562;9.940;2024-03-06T04:12:51;9.73;;;6.37;;
54983;SDS011;40884;53.562;9.940;2024-03-06T04:13:52;10.30;;;6.83;;
54983;SDS011;40884;53.562;9.940;2024-03-06T04:14:52;9.10;;;7.07;;
54983;SDS011;40884;53.562;9.940;2024-03-06T04:15:52;11.27;;;7.23;;
54983;SDS011;40884;53.562;9.940;2024-03-06T04:16:52;9.37;;;6.47;;
54983;SDS011;40884;53.562;9.940;2024-03-06T04:17:52;9.53;;;6.73;;
54983;SDS011;40884;53.562;9.940;2024-03-06T04:18:52;8.77;;;7.00;;
54983;SDS011;40884;53.562;9.940;2024-03-06T04:19:52;7.80;;;6.80;;
54983;SDS011;40884;53.562;9.940;2024-03-06T04:20:52;7.73;;;6.87;;
54983;SDS011;40884;53.562;9.940;2024-03-06T04:21:53;9.20;;;6.50;;
54983;SDS011;40884;53.562;9.940;2024-03-06T04:22:53;12.70;;;7.03;;
54983;SDS011;40884;53.562;9.940;2024-03-06T04:23:53;7.83;;;6.43;;
54983;SDS011;40884;53.562;9.940;2024-03-06T04:24:53;7.50;;;6.13;;
54983;SDS011;40884;53.562;9.940;2024-03-06T04:25:53;7.83;;;6.07;;
54983;SDS011;40884;53.562;9.940;2024-03-06T04:26:53;9.47;;;6.67;;
54983;SDS011;40884;53.562;9.940;2024-03-06T04:27:53;8.57;;;6.07;;
54983;SDS011;40884;53.562;9.940;2024-03-06T04:28:53;9.03;;;6.33;;
54983;SDS011;40884;53.562;9.940;2024-03-06T04:29:53;9.77;;;6.57;;
54983;SDS011;40884;53.562;9.940;2024-03-06T04:30:54;10.87;;;6.90;;
54983;SDS011;40884;53.562;9.940;2024-03-06T04:31:54;9.43;;;6.50;;
54983;SDS011;40884;53.562;9.940;2024-03-06T04:32:54;9.43;;;6.73;;
54983;SDS011;40884;53.562;9.940;2024-03-06T04:33:54;10.07;;;6.70;;
54983;SDS011;40884;53.562;9.940;2024-03-06T04:34:54;7.87;;;6.67;;
54983;SDS011;40884;53.562;9.940;2024-03-06T04:35:54;9.07;;;6.70;;
54983;SDS011;40884;53.562;9.940;2024-03-06T04:36:55;10.13;;;6.93;;
54983;SDS011;40884;53.562;9.940;2024-03-06T04:37:55;11.33;;;7.07;;
54983;SDS011;40884;53.562;9.940;2024-03-06T04:38:55;9.47;;;6.87;;
54983;SDS011;40884;53.562;9.940;2024-03-06T04:39:55;9.50;;;6.57;;
54983;SDS011;40884;53.562;9.940;2024-03-06T04:40:55;10.67;;;6.50;;
54983;SDS011;40884;53.562;9.940;2024-03-06T04:41:55;7.67;;;6.50;;
54983;SDS011;40884;53.562;9.940;2024-03-06T04:42:55;8.83;;;6.20;;
54983;SDS011;40884;53.562;9.940;2024-03-06T04:43:55;9.27;;;6.47;;
54983;SDS011;40884;53.562;9.940;2024-03-06T04:44:55;9.67;;;6.73;;
54983;SDS011;40884;53.562;9.940;2024-03-06T04:45:56;8.50;;;6.50;;
54983;SDS011;40884;53.562;9.940;2024-03-06T04:46:56;9.07;;;6.33;;
54983;SDS011;40884;53.562;9.940;2024-03-06T04:47:56;9.20;;;6.30;;
54983;SDS011;40884;53.562;9.940;2024-03-06T04:48:56;10.83;;;6.77;;
54983;SDS011;40884;53.562;9.940;2024-03-06T04:49:56;6.90;;;6.00;;
54983;SDS011;40884;53.562;9.940;2024-03-06T04:50:56;8.43;;;6.77;;
54983;SDS011;40884;53.562;9.940;2024-03-06T04:51:56;7.80;;;6.67;;
54983;SDS011;40884;53.562;9.940;2024-03-06T04:52:56;9.10;;;6.70;;
54983;SDS011;40884;53.562;9.940;2024-03-06T04:53:57;11.70;;;7.50;;
54983;SDS011;40884;53.562;9.940;2024-03-06T04:54:57;7.97;;;6.43;;
54983;SDS011;40884;53.562;9.940;2024-03-06T04:55:57;9.87;;;6.93;;
54983;SDS011;40884;53.562;9.940;2024-03-06T04:56:57;11.43;;;7.13;;
54983;SDS011;40884;53.562;9.940;2024-03-06T04:57:57;8.17;;;7.20;;
54983;SDS011;40884;53.562;9.940;2024-03-06T04:58:57;10.43;;;6.97;;
54983;SDS011;40884;53.562;9.940;2024-03-06T04:59:57;8.13;;;6.40;;
54983;SDS011;40884;53.562;9.940;2024-03-06T05:00:58;8.20;;;6.57;;
54983;SDS011;40884;53.562;9.940;2024-03-06T05:01:58;9.80;;;6.33;;
54983;SDS011;40884;53.562;9.940;2024-03-06T05:02:58;8.60;;;6.00;;
54983;SDS011;40884;53.562;9.940;2024-03-06T05:03:58;7.33;;;6.37;;
54983;SDS011;40884;53.562;9.940;2024-03-06T05:04:58;7.47;;;6.43;;
54983;SDS011;40884;53.562;9.940;2024-03-06T05:05:58;7.67;;;6.20;;
54983;SDS011;40884;53.562;9.940;2024-03-06T05:06:58;7.77;;;6.43;;
54983;SDS011;40884;53.562;9.940;2024-03-06T05:07:59;7.97;;;6.50;;
54983;SDS011;40884;53.562;9.940;2024-03-06T05:08:59;11.47;;;7.10;;
54983;SDS011;40884;53.562;9.940;2024-03-06T05:09:59;8.37;;;6.43;;
54983;SDS011;40884;53.562;9.940;2024-03-06T05:11:00;9.17;;;6.30;;
54983;SDS011;40884;53.562;9.940;2024-03-06T05:12:00;8.77;;;6.77;;
54983;SDS011;40884;53.562;9.940;2024-03-06T05:13:00;8.37;;;6.73;;
54983;SDS011;40884;53.562;9.940;2024-03-06T05:14:00;7.90;;;6.60;;
54983;SDS011;40884;53.562;9.940;2024-03-06T05:15:01;7.30;;;6.30;;
54983;SDS011;40884;53.562;9.940;2024-03-06T05:16:01;7.10;;;6.07;;
54983;SDS011;40884;53.562;9.940;2024-03-06T05:17:01;9.90;;;6.57;;
54983;SDS011;40884;53.562;9.940;2024-03-06T05:18:01;10.43;;;6.37;;
54983;SDS011;40884;53.562;9.940;2024-03-06T05:19:01;9.93;;;6.97;;
54983;SDS011;40884;53.562;9.940;2024-03-06T05:20:01;7.73;;;6.57;;
54983;SDS011;40884;53.562;9.940;2024-03-06T05:21:01;8.53;;;6.70;;
54983;SDS011;40884;53.562;9.940;2024-03-06T05:22:02;8.73;;;6.47;;
54983;SDS011;40884;53.562;9.940;2024-03-06T05:23:02;9.20;;;7.00;;
54983;SDS011;40884;53.562;9.940;2024-03-06T05:24:02;10.40;;;7.03;;
54983;SDS011;40884;53.562;9.940;2024-03-06T05:25:02;8.33;;;6.30;;
54983;SDS011;40884;53.562;9.940;2024-03-06T05:26:03;8.03;;;6.27;;
54983;SDS011;40884;53.562;9.940;2024-03-06T05:27:03;7.23;;;6.30;;
54983;SDS011;40884;53.562;9.940;2024-03-06T05:28:04;8.27;;;6.60;;
54983;SDS011;40884;53.562;9.940;2024-03-06T05:29:04;8.87;;;6.83;;
54983;SDS011;40884;53.562;9.940;2024-03-06T05:30:04;7.83;;;6.60;;
54983;SDS011;40884;53.562;9.940;2024-03-06T05:31:17;9.60;;;6.43;;
54983;SDS011;40884;53.562;9.940;2024-03-06T05:32:17;9.50;;;6.35;;
54983;SDS011;40884;53.562;9.940;2024-03-06T05:33:18;8.10;;;6.33;;
54983;SDS011;40884;53.562;9.940;2024-03-06T05:34:18;8.47;;;6.30;;
54983;SDS011;40884;53.562;9.940;2024-03-06T05:35:18;7.93;;;5.87;;
54983;SDS011;40884;53.562;9.940;2024-03-06T05:36:18;8.07;;;6.33;;
54983;SDS011;40884;53.562;9.940;2024-03-06T05:37:18;8.73;;;6.50;;
54983;SDS011;40884;53.562;9.940;2024-03-06T05:38:18;8.10;;;6.60;;
54983;SDS011;40884;53.562;9.940;2024-03-06T05:39:18;7.70;;;6.13;;
54983;SDS011;40884;53.562;9.940;2024-03-06T05:40:18;7.37;;;5.97;;
54983;SDS011;40884;53.562;9.940;2024-03-06T05:41:18;7.43;;;5.80;;
54983;SDS011;40884;53.562;9.940;2024-03-06T05:42:19;8.63;;;6.47;;
54983;SDS011;40884;53.562;9.940;2024-03-06T05:43:19;7.60;;;5.97;;
54983;SDS011;40884;53.562;9.940;2024-03-06T05:44:19;7.33;;;6.10;;
54983;SDS011;40884;53.562;9.940;2024-03-06T05:45:19;7.90;;;6.10;;
54983;SDS011;40884;53.562;9.940;2024-03-06T05:46:19;6.93;;;6.13;;
54983;SDS011;40884;53.562;9.940;2024-03-06T05:47:19;7.93;;;5.50;;
54983;SDS011;40884;53.562;9.940;2024-03-06T05:48:19;6.33;;;5.40;;
54983;SDS011;40884;53.562;9.940;2024-03-06T05:49:19;8.50;;;6.80;;
54983;SDS011;40884;53.562;9.940;2024-03-06T05:50:20;6.67;;;5.70;;
54983;SDS011;40884;53.562;9.940;2024-03-06T05:51:20;7.37;;;6.17;;
54983;SDS011;40884;53.562;9.940;2024-03-06T05:52:20;7.43;;;6.20;;
54983;SDS011;40884;53.562;9.940;2024-03-06T05:53:20;9.43;;;6.23;;
54983;SDS011;40884;53.562;9.940;2024-03-06T05:54:20;7.53;;;5.73;;
54983;SDS011;40884;53.562;9.940;2024-03-06T05:55:20;7.17;;;5.70;;
54983;SDS011;40884;53.562;9.940;2024-03-06T05:56:20;7.60;;;6.47;;
54983;SDS011;40884;53.562;9.940;2024-03-06T05:57:21;7.33;;;5.90;;
54983;SDS011;40884;53.562;9.940;2024-03-06T05:58:21;7.63;;;6.37;;
54983;SDS011;40884;53.562;9.940;2024-03-06T05:59:21;8.23;;;6.17;;
54983;SDS011;40884;53.562;9.940;2024-03-06T06:00:21;10.33;;;6.53;;